Time;durP1;ratioP1;P1;durP2;ratioP2;P2;SDS_P1;SDS_P2;PMS_P1;PMS_P2;Temp;Humidity;BMP_temperature;BMP_pressure;BME280_temperature;BME280_humidity;BME280_pressure;Samples;Min_cycle;Max_cycle;Signal;HPM_P1;HPM_P2
2022/11/13 00:01:16;;;;;;;7.43;4.32;;;2.10;99.90;;;;;;5076646;28;20028;-71
2022/11/13 00:03:43;;;;;;;8.63;4.82;;;2.10;99.90;;;;;;5076201;28;20054;-71
2022/11/13 00:06:12;;;;;;;7.45;4.60;;;2.10;99.90;;;;;;5076944;28;20365;-71
2022/11/13 00:08:39;;;;;;;9.38;4.90;;;2.10;99.90;;;;;;5076111;28;20413;-71
2022/11/13 00:11:07;;;;;;;7.72;4.45;;;2.10;99.90;;;;;;5076674;28;20028;-71
2022/11/13 00:13:35;;;;;;;10.55;4.47;;;2.10;99.90;;;;;;5076811;28;20013;-71
2022/11/13 00:16:06;;;;;;;9.43;4.10;;;2.10;99.90;;;;;;5076042;28;20027;-71
2022/11/13 00:18:37;;;;;;;7.03;4.30;;;2.10;99.90;;;;;;5076017;28;20029;-71
2022/11/13 00:21:18;;;;;;;7.88;4.30;;;2.10;99.90;;;;;;5076932;28;20017;-71
2022/11/13 00:23:46;;;;;;;7.53;4.20;;;2.00;99.90;;;;;;5079964;28;20032;-71
2022/11/13 00:26:17;;;;;;;8.73;4.28;;;2.00;99.90;;;;;;5079630;28;20075;-71
2022/11/13 00:28:45;;;;;;;6.15;3.67;;;2.00;99.90;;;;;;5080296;28;20051;-71
2022/11/13 00:31:14;;;;;;;6.18;3.55;;;2.00;99.90;;;;;;5079846;28;20017;-71
2022/11/13 00:33:41;;;;;;;6.47;3.97;;;2.00;99.90;;;;;;5080073;28;20412;-71
2022/11/13 00:36:15;;;;;;;7.28;4.07;;;2.00;99.90;;;;;;5080122;28;20024;-71
2022/11/13 00:38:44;;;;;;;6.88;3.95;;;2.00;99.90;;;;;;5079845;28;20027;-71
2022/11/13 00:41:11;;;;;;;7.80;3.85;;;2.00;99.90;;;;;;5079430;28;20032;-71
2022/11/13 00:43:40;;;;;;;7.32;4.15;;;2.00;99.90;;;;;;5061914;28;20024;-71
2022/11/13 00:46:07;;;;;;;7.50;4.30;;;2.00;99.90;;;;;;5079250;28;20081;-71
2022/11/13 00:48:35;;;;;;;7.00;3.72;;;2.00;99.90;;;;;;5061718;28;20479;-71
2022/11/13 00:51:03;;;;;;;7.00;3.60;;;2.00;99.90;;;;;;5061556;28;20025;-71
2022/11/13 00:53:30;;;;;;;8.20;4.15;;;2.00;99.90;;;;;;5061432;28;20052;-71
2022/11/13 00:55:59;;;;;;;7.93;3.88;;;2.00;99.90;;;;;;5079244;28;20060;-71
2022/11/13 00:58:27;;;;;;;7.40;4.10;;;2.00;99.90;;;;;;5079506;28;20021;-71
2022/11/13 01:00:54;;;;;;;6.45;3.42;;;1.90;99.90;;;;;;5061381;28;20097;-71
2022/11/13 01:03:22;;;;;;;7.55;3.72;;;1.90;99.90;;;;;;5078757;28;20064;-71
2022/11/13 01:05:50;;;;;;;6.05;3.67;;;1.90;99.90;;;;;;5078943;28;20031;-71
2022/11/13 01:08:17;;;;;;;7.85;3.63;;;1.90;99.90;;;;;;5079712;28;20013;-71
2022/11/13 01:10:48;;;;;;;6.15;3.65;;;1.90;99.90;;;;;;5061648;28;20489;-71
2022/11/13 01:13:15;;;;;;;7.82;3.70;;;1.90;99.90;;;;;;5079223;28;20100;-71
2022/11/13 01:15:44;;;;;;;5.28;3.28;;;1.90;99.90;;;;;;5078845;28;20024;-71
2022/11/13 01:18:12;;;;;;;8.40;4.10;;;1.80;99.90;;;;;;5079461;28;20417;-71
2022/11/13 01:20:39;;;;;;;6.03;3.55;;;1.80;99.90;;;;;;5079327;28;20029;-71
2022/11/13 01:23:07;;;;;;;9.02;3.33;;;1.80;99.90;;;;;;5078755;28;20032;-71
2022/11/13 01:25:35;;;;;;;8.10;3.53;;;1.80;99.90;;;;;;5077491;28;20035;-71
2022/11/13 01:28:03;;;;;;;7.72;4.00;;;1.80;99.90;;;;;;5079336;28;20051;-71
2022/11/13 01:30:30;;;;;;;5.68;3.00;;;1.70;99.90;;;;;;5078582;28;20486;-71
2022/11/13 01:32:58;;;;;;;6.82;4.28;;;1.70;99.90;;;;;;5043132;28;20365;-71
2022/11/13 01:35:25;;;;;;;6.65;3.45;;;1.70;99.90;;;;;;5079035;28;20027;-71
2022/11/13 01:37:52;;;;;;;5.82;3.42;;;1.70;99.90;;;;;;5078555;28;20416;-71
2022/11/13 01:40:20;;;;;;;4.45;2.92;;;1.60;99.90;;;;;;5078387;28;20031;-71
2022/11/13 01:42:47;;;;;;;7.25;3.03;;;1.60;99.90;;;;;;5078593;28;20320;-71
2022/11/13 01:45:52;;;;;;;5.55;2.97;;;1.50;99.90;;;;;;5078129;28;20036;-71
2022/11/13 01:48:20;;;;;;;5.55;2.95;;;1.50;99.90;;;;;;5067664;28;20082;-71
2022/11/13 01:50:47;;;;;;;6.93;3.35;;;1.50;99.90;;;;;;5078193;28;20020;-71
2022/11/13 01:53:15;;;;;;;5.38;3.25;;;1.40;99.90;;;;;;5060387;28;20035;-71
2022/11/13 01:55:43;;;;;;;7.63;3.50;;;1.40;99.90;;;;;;5078016;28;20023;-71
2022/11/13 01:58:10;;;;;;;7.63;2.90;;;1.40;99.90;;;;;;5078539;28;20107;-71
2022/11/13 02:00:38;;;;;;;5.45;3.70;;;1.40;99.90;;;;;;5077994;28;20104;-71
2022/11/13 02:03:05;;;;;;;6.45;3.28;;;1.40;99.90;;;;;;5077889;28;20436;-71
2022/11/13 02:05:33;;;;;;;6.70;3.35;;;1.30;99.90;;;;;;5077803;28;20070;-71
2022/11/13 02:08:00;;;;;;;7.85;3.75;;;1.30;99.90;;;;;;5078389;28;20048;-71
2022/11/13 02:10:28;;;;;;;7.18;3.20;;;1.30;99.90;;;;;;5078012;28;20335;-71
2022/11/13 02:12:56;;;;;;;6.47;3.65;;;1.30;99.90;;;;;;5060332;28;20024;-71
2022/11/13 02:15:26;;;;;;;5.72;3.47;;;1.30;99.90;;;;;;5077680;28;20324;-71
2022/11/13 02:17:59;;;;;;;5.82;3.28;;;1.30;99.90;;;;;;5078323;28;20032;-71
2022/11/13 02:20:40;;;;;;;6.35;3.35;;;1.20;99.90;;;;;;5077611;28;20319;-71
2022/11/13 02:23:28;;;;;;;6.75;3.53;;;1.20;99.90;;;;;;5078219;28;20078;-71
2022/11/13 02:25:55;;;;;;;8.00;3.13;;;1.20;99.90;;;;;;5077431;28;20385;-71
2022/11/13 02:28:23;;;;;;;6.10;3.47;;;1.20;99.90;;;;;;5077725;28;20020;-71
2022/11/13 02:30:50;;;;;;;4.78;2.88;;;1.10;99.90;;;;;;5077392;28;20436;-71
2022/11/13 02:33:23;;;;;;;8.98;3.30;;;1.10;99.90;;;;;;5059705;28;20021;-71
2022/11/13 02:35:51;;;;;;;6.10;3.40;;;1.10;99.90;;;;;;5077191;28;20343;-71
2022/11/13 02:38:19;;;;;;;6.65;3.40;;;1.10;99.90;;;;;;5077822;28;20016;-71
2022/11/13 02:40:46;;;;;;;5.50;3.15;;;1.10;99.90;;;;;;5077198;28;20024;-71
2022/11/13 02:43:13;;;;;;;5.50;3.58;;;1.00;99.90;;;;;;5059639;28;20025;-71
2022/11/13 02:45:40;;;;;;;7.60;3.65;;;1.00;99.90;;;;;;5076839;28;20025;-71
2022/11/13 02:48:08;;;;;;;8.32;3.78;;;1.00;99.90;;;;;;5077001;28;20020;-71
2022/11/13 02:50:37;;;;;;;5.18;2.90;;;1.00;99.90;;;;;;5076985;28;20047;-71
2022/11/13 02:53:04;;;;;;;17.27;8.02;;;1.00;99.90;;;;;;5077425;28;20024;-71
2022/11/13 02:55:32;;;;;;;8.85;3.53;;;1.00;99.90;;;;;;5059894;28;20103;-71
2022/11/13 02:58:00;;;;;;;7.18;3.53;;;1.00;99.90;;;;;;5077503;28;20103;-71
2022/11/13 03:00:27;;;;;;;7.90;3.40;;;1.00;99.90;;;;;;5077428;28;20108;-71
2022/11/13 03:02:54;;;;;;;7.15;3.42;;;0.90;99.90;;;;;;5076754;28;20048;-71
2022/11/13 03:05:22;;;;;;;6.35;3.13;;;0.90;99.90;;;;;;5076764;28;20038;-71
2022/11/13 03:07:50;;;;;;;5.57;3.35;;;0.90;99.90;;;;;;5059465;28;20024;-71
2022/11/13 03:10:17;;;;;;;5.97;3.30;;;0.90;99.90;;;;;;5076738;28;20020;-71
2022/11/13 03:12:45;;;;;;;5.93;3.67;;;0.90;99.90;;;;;;5076914;28;20293;-71
2022/11/13 03:15:12;;;;;;;5.82;3.67;;;0.90;99.90;;;;;;5076696;28;20020;-71
2022/11/13 03:17:40;;;;;;;8.55;3.08;;;0.90;99.90;;;;;;5076575;28;20375;-71
2022/11/13 03:20:07;;;;;;;6.57;3.55;;;0.90;99.90;;;;;;5076566;28;20367;-71
2022/11/13 03:22:35;;;;;;;5.15;3.33;;;0.90;99.90;;;;;;5076904;28;20094;-71
2022/11/13 03:25:02;;;;;;;7.72;3.60;;;0.80;99.90;;;;;;5077058;28;20473;-71
2022/11/13 03:27:31;;;;;;;6.60;3.50;;;0.80;99.90;;;;;;5076853;28;20025;-71
2022/11/13 03:29:58;;;;;;;6.45;3.40;;;0.80;99.90;;;;;;5076567;28;20021;-71
2022/11/13 03:32:26;;;;;;;5.68;3.00;;;0.80;99.90;;;;;;5076744;28;20025;-71
2022/11/13 03:34:54;;;;;;;6.07;3.50;;;0.80;99.90;;;;;;5059415;28;20313;-71
2022/11/13 03:37:21;;;;;;;4.90;2.97;;;0.80;99.90;;;;;;5075547;28;20040;-71
2022/11/13 03:39:48;;;;;;;4.82;2.88;;;0.80;99.90;;;;;;5076952;28;20460;-71
2022/11/13 03:42:16;;;;;;;5.95;3.03;;;0.70;99.90;;;;;;5076715;28;20363;-71
2022/11/13 03:44:43;;;;;;;6.47;3.03;;;0.70;99.90;;;;;;5075623;28;20075;-71
2022/11/13 03:47:10;;;;;;;6.15;2.83;;;0.60;99.90;;;;;;5076474;28;20028;-71
2022/11/13 03:49:38;;;;;;;6.82;3.72;;;0.60;99.90;;;;;;5058508;28;20035;-71
2022/11/13 03:52:05;;;;;;;6.03;3.28;;;0.60;99.90;;;;;;5076888;28;20013;-71
2022/11/13 03:54:32;;;;;;;5.68;2.85;;;0.60;99.90;;;;;;5076843;28;20047;-71
2022/11/13 03:57:00;;;;;;;5.15;3.47;;;0.60;99.90;;;;;;5079013;28;20016;-71
2022/11/13 03:59:27;;;;;;;5.13;2.67;;;0.60;99.90;;;;;;5080312;28;20096;-71
2022/11/13 04:01:55;;;;;;;4.95;2.88;;;0.50;99.90;;;;;;5080355;28;20055;-71
2022/11/13 04:04:22;;;;;;;6.85;3.83;;;0.50;99.90;;;;;;5060658;28;20078;-71
2022/11/13 04:06:49;;;;;;;6.03;3.10;;;0.50;99.90;;;;;;5060598;28;20021;-71
2022/11/13 04:09:16;;;;;;;7.78;3.17;;;0.50;99.90;;;;;;5060642;28;20370;-71
2022/11/13 04:11:44;;;;;;;4.35;2.65;;;0.40;99.90;;;;;;5060662;28;20079;-71
2022/11/13 04:14:11;;;;;;;7.47;3.17;;;0.40;99.90;;;;;;5059974;28;20027;-71
2022/11/13 04:16:42;;;;;;;5.88;2.83;;;0.30;99.90;;;;;;5060097;28;20036;-71
2022/11/13 04:19:10;;;;;;;6.65;3.05;;;0.30;99.90;;;;;;5059965;28;20321;-71
2022/11/13 04:21:37;;;;;;;8.02;3.58;;;0.30;99.90;;;;;;5060179;28;20028;-71
2022/11/13 04:24:05;;;;;;;6.57;3.58;;;0.30;99.90;;;;;;5060395;28;20076;-71
2022/11/13 04:26:33;;;;;;;5.65;2.70;;;0.20;99.90;;;;;;5058633;28;20116;-71
2022/11/13 04:29:00;;;;;;;5.97;3.53;;;0.20;99.90;;;;;;5060225;28;20375;-71
2022/11/13 04:31:28;;;;;;;7.30;3.60;;;0.10;99.90;;;;;;5060163;28;20021;-71
2022/11/13 04:33:55;;;;;;;4.88;2.70;;;0.10;99.90;;;;;;5060238;28;20104;-70
2022/11/13 04:36:23;;;;;;;5.50;2.63;;;0.10;99.90;;;;;;5060176;28;20033;-71
2022/11/13 04:38:50;;;;;;;5.32;2.88;;;0.10;99.90;;;;;;5059574;28;20017;-73
2022/11/13 04:44:03;;;;;;;7.53;2.80;;;0.10;99.90;;;;;;5059697;28;20083;-71
2022/11/13 04:46:31;;;;;;;5.35;3.15;;;0.10;99.90;;;;;;5059277;28;20060;-71
2022/11/13 04:48:58;;;;;;;6.13;3.13;;;0.10;99.90;;;;;;5059355;28;20017;-71
2022/11/13 04:51:26;;;;;;;5.85;3.45;;;0.00;99.90;;;;;;5059565;28;20424;-71
2022/11/13 04:53:53;;;;;;;6.70;3.22;;;0.00;99.90;;;;;;5059981;28;20052;-71
2022/11/13 04:56:21;;;;;;;5.72;2.85;;;0.00;99.90;;;;;;5059185;28;20329;-71
2022/11/13 04:58:48;;;;;;;6.43;3.42;;;0.00;99.90;;;;;;5058205;28;20031;-70
2022/11/13 05:01:15;;;;;;;7.07;2.95;;;-0.10;99.90;;;;;;5059045;28;20025;-71
2022/11/13 05:03:43;;;;;;;6.63;3.05;;;-0.10;99.90;;;;;;5073618;28;20041;-71
2022/11/13 05:06:11;;;;;;;6.70;3.00;;;-0.10;99.90;;;;;;5079280;28;20021;-71
2022/11/13 05:08:38;;;;;;;7.07;3.42;;;-0.10;99.90;;;;;;5078659;28;20028;-71
2022/11/13 05:11:06;;;;;;;5.03;3.10;;;-0.10;99.90;;;;;;5078863;28;20024;-71
2022/11/13 05:13:35;;;;;;;6.25;3.20;;;-0.10;99.90;;;;;;5078926;28;20021;-71
2022/11/13 05:16:08;;;;;;;7.38;3.15;;;0.00;99.90;;;;;;5061351;28;20093;-71
2022/11/13 05:18:36;;;;;;;6.03;3.08;;;-0.10;99.90;;;;;;5078961;28;20356;-71
2022/11/13 05:21:05;;;;;;;6.25;3.47;;;-0.10;99.90;;;;;;5080271;28;20025;-71
2022/11/13 05:23:33;;;;;;;5.57;2.88;;;-0.10;99.90;;;;;;5079340;28;20033;-71
2022/11/13 05:26:06;;;;;;;8.32;3.55;;;-0.20;99.90;;;;;;5078619;28;20052;-71
2022/11/13 05:28:34;;;;;;;5.97;3.33;;;-0.20;99.90;;;;;;5078801;28;20021;-71
2022/11/13 05:31:12;;;;;;;9.52;3.80;;;-0.20;99.90;;;;;;5078600;28;20028;-71
2022/11/13 05:33:40;;;;;;;6.28;3.13;;;-0.20;99.90;;;;;;5078578;28;20412;-71
2022/11/13 05:36:13;;;;;;;7.43;3.97;;;-0.20;99.90;;;;;;5078540;28;20538;-71
2022/11/13 05:38:41;;;;;;;5.85;3.08;;;-0.20;99.90;;;;;;5078664;28;20030;-71
2022/11/13 05:41:12;;;;;;;5.30;3.00;;;-0.20;99.90;;;;;;5060608;28;20328;-71
2022/11/13 05:43:40;;;;;;;7.78;3.60;;;-0.20;99.90;;;;;;5078375;28;20032;-71
2022/11/13 05:46:13;;;;;;;7.50;3.25;;;-0.20;99.90;;;;;;5078781;28;20020;-71
2022/11/13 05:48:41;;;;;;;6.10;2.90;;;-0.20;99.90;;;;;;5078430;28;20028;-71
2022/11/13 05:51:14;;;;;;;6.43;3.45;;;-0.20;99.90;;;;;;5078477;28;20016;-71
2022/11/13 05:53:42;;;;;;;6.72;3.78;;;-0.20;99.90;;;;;;5078167;28;20020;-71
2022/11/13 05:56:19;;;;;;;7.32;3.47;;;-0.20;99.90;;;;;;5078063;28;20104;-71
2022/11/13 05:58:47;;;;;;;7.85;3.60;;;-0.20;99.90;;;;;;5078232;28;20107;-71
2022/11/13 06:01:24;;;;;;;6.43;3.53;;;-0.30;99.90;;;;;;5078463;28;20078;-71
2022/11/13 06:03:53;;;;;;;7.55;3.17;;;-0.30;99.90;;;;;;5077792;28;20048;-71
2022/11/13 06:06:22;;;;;;;6.18;3.60;;;-0.30;99.90;;;;;;5077875;28;20020;-71
2022/11/13 06:08:50;;;;;;;6.00;3.20;;;-0.30;99.90;;;;;;5060317;28;20031;-71
2022/11/13 06:11:20;;;;;;;5.53;3.08;;;-0.30;99.90;;;;;;5078356;28;20013;-71
2022/11/13 06:13:48;;;;;;;7.88;3.75;;;-0.30;99.90;;;;;;5078051;28;20101;-71
2022/11/13 06:16:21;;;;;;;7.25;3.58;;;-0.30;99.90;;;;;;5077883;28;20024;-71
2022/11/13 06:18:49;;;;;;;6.95;3.33;;;-0.30;99.90;;;;;;5076979;28;20027;-71
2022/11/13 06:21:24;;;;;;;5.97;3.00;;;-0.30;99.90;;;;;;5078163;28;20473;-71
2022/11/13 06:23:51;;;;;;;6.45;3.67;;;-0.30;99.90;;;;;;5078096;28;20119;-71
2022/11/13 06:26:21;;;;;;;6.95;3.22;;;-0.30;99.90;;;;;;5059683;28;20074;-71
2022/11/13 06:28:48;;;;;;;6.80;3.25;;;-0.20;99.90;;;;;;5077470;28;20028;-71
2022/11/13 06:31:23;;;;;;;5.45;3.20;;;-0.30;99.90;;;;;;5077356;28;20320;-71
2022/11/13 06:33:50;;;;;;;5.70;3.05;;;-0.30;99.90;;;;;;5077537;28;20017;-71
2022/11/13 06:36:23;;;;;;;5.75;3.30;;;-0.30;99.90;;;;;;5077261;28;20028;-71
2022/11/13 06:38:51;;;;;;;5.68;3.20;;;-0.30;99.90;;;;;;5077568;28;20059;-71
2022/11/13 06:41:20;;;;;;;6.47;3.42;;;-0.30;99.90;;;;;;5077476;28;20103;-71
2022/11/13 06:43:48;;;;;;;7.13;3.08;;;-0.30;99.90;;;;;;5077857;28;20032;-71
2022/11/13 06:46:28;;;;;;;7.10;3.95;;;-0.30;99.90;;;;;;5076938;28;20421;-71
2022/11/13 06:48:56;;;;;;;5.55;2.70;;;-0.30;99.90;;;;;;5059300;28;20416;-72
2022/11/13 06:51:28;;;;;;;6.43;3.53;;;-0.30;99.90;;;;;;5077024;28;20085;-72
2022/11/13 06:53:57;;;;;;;5.20;3.17;;;-0.30;99.90;;;;;;5077174;28;20017;-77
2022/11/13 06:56:24;;;;;;;6.72;3.70;;;-0.20;99.90;;;;;;5077202;28;20048;-76
2022/11/13 06:58:53;;;;;;;6.88;2.75;;;-0.20;99.90;;;;;;5077200;28;20387;-72
2022/11/13 07:01:23;;;;;;;7.90;3.35;;;-0.20;99.90;;;;;;5076810;28;20029;-74
2022/11/13 07:03:50;;;;;;;6.72;3.42;;;-0.20;99.90;;;;;;5076848;28;20045;-78
2022/11/13 07:06:20;;;;;;;5.70;3.17;;;-0.20;99.90;;;;;;5077041;28;20031;-72
2022/11/13 07:08:47;;;;;;;10.07;3.22;;;-0.20;99.90;;;;;;5076864;28;20024;-72
2022/11/13 07:11:21;;;;;;;6.78;2.95;;;-0.20;99.90;;;;;;5076948;28;20012;-71
2022/11/13 07:13:49;;;;;;;8.65;4.63;;;-0.10;99.90;;;;;;5077440;28;20043;-71
2022/11/13 07:16:17;;;;;;;5.70;3.28;;;-0.10;99.90;;;;;;5077107;28;20020;-72
2022/11/13 07:18:52;;;;;;;5.97;3.47;;;-0.10;99.90;;;;;;5076630;28;20070;-73
2022/11/13 07:21:20;;;;;;;7.30;3.10;;;-0.10;99.90;;;;;;5076930;28;20297;-71
2022/11/13 07:23:49;;;;;;;5.60;3.00;;;0.00;99.90;;;;;;5076725;28;20352;-71
2022/11/13 07:26:17;;;;;;;6.97;3.67;;;0.00;99.90;;;;;;5058575;28;20391;-75
2022/11/13 07:28:45;;;;;;;9.88;4.78;;;0.00;99.90;;;;;;5076434;28;20319;-71
2022/11/13 07:31:14;;;;;;;14.20;6.93;;;0.00;99.90;;;;;;5076966;28;20020;-74
2022/11/13 07:33:42;;;;;;;11.40;5.38;;;0.00;99.90;;;;;;5076662;28;20128;-75
2022/11/13 07:36:10;;;;;;;12.63;6.03;;;0.10;99.90;;;;;;5076731;28;20401;-71
2022/11/13 07:38:37;;;;;;;18.90;7.80;;;0.10;99.90;;;;;;5076511;28;20020;-72
2022/11/13 07:41:05;;;;;;;19.70;8.68;;;0.20;99.90;;;;;;5076406;28;20065;-74
2022/11/13 07:43:33;;;;;;;10.63;4.93;;;0.20;99.90;;;;;;5076807;28;20050;-73
2022/11/13 07:46:01;;;;;;;11.93;4.80;;;0.20;99.90;;;;;;5058531;28;20024;-74
2022/11/13 07:48:29;;;;;;;10.63;4.72;;;0.30;99.90;;;;;;5076398;28;20021;-74
2022/11/13 07:51:01;;;;;;;9.18;4.72;;;0.30;99.90;;;;;;5076339;28;20016;-74
2022/11/13 07:53:29;;;;;;;10.35;3.97;;;0.30;99.90;;;;;;5076437;28;20017;-74
2022/11/13 07:56:00;;;;;;;8.85;4.15;;;0.40;99.90;;;;;;5076328;28;20024;-73
2022/11/13 07:58:28;;;;;;;10.10;3.97;;;0.40;99.90;;;;;;5076327;28;20020;-73
2022/11/13 08:01:02;;;;;;;8.65;4.32;;;0.50;99.90;;;;;;5076392;28;20086;-71
2022/11/13 08:03:31;;;;;;;12.82;4.35;;;0.50;99.90;;;;;;5076102;28;20053;-71
2022/11/13 08:06:06;;;;;;;15.13;7.50;;;0.60;99.90;;;;;;5076082;28;20028;-73
2022/11/13 08:08:34;;;;;;;12.90;7.30;;;0.70;99.90;;;;;;5076251;28;20130;-74
2022/11/13 08:11:06;;;;;;;12.13;6.60;;;0.80;99.90;;;;;;5076421;28;20416;-71
2022/11/13 08:13:34;;;;;;;12.38;7.25;;;0.80;99.90;;;;;;5076307;28;20021;-72
2022/11/13 08:16:03;;;;;;;15.82;8.70;;;0.90;99.90;;;;;;5076080;28;20035;-71
2022/11/13 08:18:31;;;;;;;13.52;7.68;;;1.00;99.90;;;;;;5076088;28;20035;-73
2022/11/13 08:21:04;;;;;;;16.60;6.20;;;1.20;99.90;;;;;;5058244;28;20025;-70
2022/11/13 08:23:32;;;;;;;10.48;5.22;;;1.30;99.90;;;;;;5076297;28;20371;-71
2022/11/13 08:26:05;;;;;;;14.90;7.40;;;1.40;99.90;;;;;;5075926;28;20020;-73
2022/11/13 08:28:33;;;;;;;12.82;7.85;;;1.60;99.90;;;;;;5075972;28;20107;-81
2022/11/13 08:31:01;;;;;;;12.70;8.18;;;1.70;99.90;;;;;;5076233;28;20418;-72
2022/11/13 08:33:29;;;;;;;16.40;8.95;;;1.80;99.90;;;;;;5075937;28;20025;-72
2022/11/13 08:35:58;;;;;;;12.40;7.68;;;2.00;99.90;;;;;;5075848;28;20028;-72
2022/11/13 08:38:25;;;;;;;15.65;5.90;;;2.00;99.90;;;;;;5076427;28;20021;-71
2022/11/13 08:40:56;;;;;;;7.72;4.45;;;2.20;99.90;;;;;;5076110;28;20055;-72
2022/11/13 08:43:24;;;;;;;7.65;3.55;;;2.20;99.90;;;;;;5078800;28;20063;-72
2022/11/13 08:45:52;;;;;;;7.40;4.03;;;2.30;99.90;;;;;;5061551;28;20165;-74
2022/11/13 08:48:19;;;;;;;6.10;3.58;;;2.40;99.90;;;;;;5079354;28;20016;-70
2022/11/13 08:50:52;;;;;;;8.85;3.65;;;2.50;99.90;;;;;;5079628;28;20017;-73
2022/11/13 08:53:20;;;;;;;7.25;2.97;;;2.60;99.90;;;;;;5079464;28;20012;-72
2022/11/13 08:55:47;;;;;;;12.82;4.75;;;2.70;99.90;;;;;;5079272;28;20056;-72
2022/11/13 08:58:15;;;;;;;6.28;3.33;;;2.80;99.90;;;;;;5079241;28;20023;-71
2022/11/13 09:00:42;;;;;;;6.78;3.65;;;2.90;99.90;;;;;;5061561;28;20086;-71
2022/11/13 09:03:11;;;;;;;5.85;2.88;;;3.00;99.90;;;;;;5079143;28;20071;-71
2022/11/13 09:05:44;;;;;;;5.25;3.08;;;3.10;99.90;;;;;;5079622;28;20040;-72
2022/11/13 09:08:11;;;;;;;6.43;3.72;;;3.30;99.90;;;;;;5079131;28;20053;-71
2022/11/13 09:10:39;;;;;;;6.53;3.58;;;3.40;99.90;;;;;;5079294;28;20020;-71
2022/11/13 09:13:07;;;;;;;8.20;3.53;;;3.50;99.90;;;;;;5079389;28;20017;-71
2022/11/13 09:15:39;;;;;;;7.22;4.13;;;3.50;99.90;;;;;;5078848;28;20055;-71
2022/11/13 09:18:06;;;;;;;8.27;4.35;;;3.70;99.90;;;;;;5078715;28;20055;-69
2022/11/13 09:20:34;;;;;;;6.80;4.05;;;3.70;99.90;;;;;;5079104;28;20099;-70
2022/11/13 09:23:05;;;;;;;7.80;3.45;;;3.80;99.90;;;;;;5080201;28;20039;-69
2022/11/13 09:25:34;;;;;;;7.63;4.05;;;3.90;99.90;;;;;;5079466;28;20485;-69
2022/11/13 09:28:02;;;;;;;8.07;5.25;;;3.90;99.90;;;;;;5078771;28;20021;-69
2022/11/13 09:30:31;;;;;;;7.65;4.40;;;4.00;99.90;;;;;;5078946;28;20020;-70
2022/11/13 09:32:59;;;;;;;8.50;4.45;;;4.00;99.90;;;;;;5078715;28;20061;-71
2022/11/13 09:35:35;;;;;;;10.10;4.03;;;4.00;99.90;;;;;;5078535;28;20028;-69
2022/11/13 09:38:12;;;;;;;8.63;4.15;;;4.10;99.90;;;;;;5078590;28;20036;-70
2022/11/13 09:40:44;;;;;;;8.60;4.60;;;4.20;99.90;;;;;;5078853;28;20029;-71
2022/11/13 09:43:37;;;;;;;8.48;5.50;;;4.20;99.90;;;;;;5078925;28;20020;-71
2022/11/13 09:46:16;;;;;;;9.80;5.75;;;4.30;99.90;;;;;;5060580;28;20362;-72
2022/11/13 09:49:00;;;;;;;11.95;6.90;;;4.30;99.90;;;;;;5078560;28;20047;-72
2022/11/13 09:51:36;;;;;;;9.65;5.45;;;4.40;99.90;;;;;;5078490;28;20023;-71
2022/11/13 09:54:09;;;;;;;9.82;5.30;;;4.50;99.90;;;;;;5077295;28;20047;-71
2022/11/13 09:56:57;;;;;;;8.10;4.80;;;4.60;99.90;;;;;;5078403;28;20020;-71
2022/11/13 09:59:32;;;;;;;8.23;5.07;;;4.70;99.90;;;;;;5078645;28;20059;-71
2022/11/13 10:02:30;;;;;;;7.57;4.53;;;4.70;99.90;;;;;;5078022;28;20056;-71
2022/11/13 10:05:05;;;;;;;11.07;4.75;;;4.80;99.90;;;;;;5078129;28;20439;-72
2022/11/13 10:07:59;;;;;;;8.90;4.03;;;4.90;99.90;;;;;;5078373;28;20029;-71
2022/11/13 10:10:56;;;;;;;6.78;4.03;;;5.00;99.90;;;;;;5077856;28;20039;-72
2022/11/13 10:13:31;;;;;;;9.68;5.47;;;5.10;99.90;;;;;;5078339;28;20074;-72
2022/11/13 10:16:15;;;;;;;8.07;4.55;;;5.20;99.90;;;;;;5078290;28;20312;-72
2022/11/13 10:18:43;;;;;;;6.53;4.50;;;5.30;99.90;;;;;;5078353;28;20021;-71
2022/11/13 10:21:32;;;;;;;7.03;4.43;;;5.40;99.90;;;;;;5077668;28;20025;-72
2022/11/13 10:24:04;;;;;;;6.20;4.30;;;5.40;99.90;;;;;;5077896;28;20312;-72
2022/11/13 10:26:32;;;;;;;8.18;4.68;;;5.40;99.90;;;;;;5077428;28;20420;-72
2022/11/13 10:29:06;;;;;;;7.90;4.90;;;5.50;99.90;;;;;;5078153;28;20020;-70
2022/11/13 10:32:20;;;;;;;8.90;5.13;;;5.60;99.90;;;;;;5077597;28;20096;-70
2022/11/13 10:35:05;;;;;;;6.40;4.30;;;5.70;99.90;;;;;;5071980;28;20033;-69
2022/11/13 10:37:59;;;;;;;6.57;4.30;;;5.70;99.90;;;;;;5077846;28;20281;-70
2022/11/13 10:40:29;;;;;;;9.23;6.15;;;5.70;99.90;;;;;;5077473;28;20149;-70
2022/11/13 10:43:16;;;;;;;10.57;5.00;;;5.80;99.90;;;;;;5077351;28;20321;-72
2022/11/13 10:45:55;;;;;;;7.88;5.32;;;5.80;99.90;;;;;;5076881;28;20029;-71
2022/11/13 10:48:28;;;;;;;7.97;4.63;;;5.90;99.90;;;;;;5077081;28;20028;-71
2022/11/13 10:51:03;;;;;;;5.30;3.65;;;6.00;99.90;;;;;;5077074;28;20039;-71
2022/11/13 10:53:41;;;;;;;6.45;3.92;;;6.10;99.90;;;;;;5077188;28;20025;-72
2022/11/13 10:56:36;;;;;;;6.35;4.15;;;6.20;99.90;;;;;;5076970;28;20020;-71
2022/11/13 10:59:13;;;;;;;6.43;3.90;;;6.30;99.90;;;;;;5059277;28;20094;-73
2022/11/13 11:01:44;;;;;;;7.38;3.58;;;6.30;99.90;;;;;;5077265;28;20025;-72
2022/11/13 11:04:20;;;;;;;6.22;3.72;;;6.40;99.90;;;;;;5055650;28;20135;-71
2022/11/13 11:06:49;;;;;;;6.10;4.05;;;6.50;99.90;;;;;;5056622;28;20037;-71
2022/11/13 11:09:29;;;;;;;8.20;4.72;;;6.60;99.90;;;;;;5056770;28;20032;-71
2022/11/13 11:12:15;;;;;;;7.85;4.43;;;6.60;99.90;;;;;;5056935;28;20025;-71
2022/11/13 11:14:57;;;;;;;6.55;4.13;;;6.70;99.90;;;;;;5056714;28;20025;-72
2022/11/13 11:17:35;;;;;;;7.47;4.40;;;6.80;99.90;;;;;;5057164;28;20104;-71
2022/11/13 11:20:06;;;;;;;7.20;4.65;;;6.80;99.90;;;;;;5056871;28;20025;-71
2022/11/13 11:22:37;;;;;;;7.57;4.30;;;7.00;99.90;;;;;;5057335;28;20017;-71
2022/11/13 11:25:20;;;;;;;5.68;4.28;;;7.00;99.90;;;;;;5056498;28;20052;-79
2022/11/13 11:28:00;;;;;;;7.97;4.18;;;7.10;99.90;;;;;;5056865;28;20029;-70
2022/11/13 11:30:45;;;;;;;6.80;4.50;;;7.10;99.90;;;;;;5057088;28;20364;-71
2022/11/13 11:33:32;;;;;;;7.65;5.38;;;7.20;99.90;;;;;;5056716;28;20017;-71
2022/11/13 11:36:08;;;;;;;7.95;4.47;;;7.30;99.90;;;;;;5056687;28;20029;-71
2022/11/13 11:39:16;;;;;;;7.70;4.43;;;7.30;99.90;;;;;;5056997;28;20044;-70
2022/11/13 11:42:00;;;;;;;6.25;4.32;;;7.40;99.90;;;;;;5056852;28;20033;-70
2022/11/13 11:44:31;;;;;;;6.25;3.78;;;7.50;99.90;;;;;;5057015;28;20017;-70
2022/11/13 11:46:58;;;;;;;6.13;4.43;;;7.50;99.90;;;;;;5057268;28;20051;-70
2022/11/13 11:49:26;;;;;;;7.72;4.57;;;7.60;99.90;;;;;;5056249;28;20021;-71
2022/11/13 11:52:07;;;;;;;8.13;4.80;;;7.60;99.90;;;;;;5056419;28;20045;-70
2022/11/13 11:54:48;;;;;;;7.20;4.30;;;7.70;99.90;;;;;;5056273;28;20362;-71
2022/11/13 11:57:34;;;;;;;7.90;4.47;;;7.80;99.90;;;;;;5056307;28;20032;-71
2022/11/13 12:00:10;;;;;;;7.82;4.65;;;7.90;99.90;;;;;;5056517;28;20025;-71
2022/11/13 12:02:54;;;;;;;8.43;4.60;;;7.90;99.90;;;;;;5061127;28;20025;-75
2022/11/13 12:05:27;;;;;;;6.47;4.32;;;8.00;99.90;;;;;;5076172;28;20028;-74
2022/11/13 12:07:56;;;;;;;10.20;4.57;;;8.10;99.90;;;;;;5076187;28;20024;-73
2022/11/13 12:10:34;;;;;;;7.07;4.40;;;8.10;99.90;;;;;;5058407;28;20024;-70
2022/11/13 12:13:29;;;;;;;8.63;4.28;;;8.20;99.90;;;;;;5077203;28;20102;-72
2022/11/13 12:15:59;;;;;;;8.63;4.90;;;8.20;99.90;;;;;;5076611;28;20107;-71
2022/11/13 12:18:39;;;;;;;9.00;5.35;;;8.30;99.90;;;;;;5079103;28;20021;-71
2022/11/13 12:21:37;;;;;;;13.65;5.05;;;8.30;99.90;;;;;;5080451;28;20020;-71
2022/11/13 12:24:57;;;;;;;7.50;4.90;;;8.40;99.90;;;;;;5080143;28;20052;-71
2022/11/13 12:27:42;;;;;;;7.65;4.63;;;8.40;99.90;;;;;;5080109;28;20021;-71
2022/11/13 12:30:29;;;;;;;7.72;4.47;;;8.50;99.90;;;;;;5080319;28;20027;-70
2022/11/13 12:33:26;;;;;;;8.48;4.57;;;8.60;99.90;;;;;;5079880;28;20016;-71
2022/11/13 12:35:53;;;;;;;;;;;8.80;99.90;;;;;;5080070;28;20024;-71
2022/11/13 12:38:24;;;;;;;11.00;5.10;;;8.90;99.90;;;;;;5078722;28;20314;-71
2022/11/13 12:41:12;;;;;;;8.75;5.25;;;8.90;99.90;;;;;;5079484;28;20051;-71
2022/11/13 12:43:55;;;;;;;7.53;4.85;;;9.10;99.90;;;;;;5078893;28;20059;-71
2022/11/13 12:46:35;;;;;;;9.73;4.60;;;9.10;99.90;;;;;;5079890;28;20404;-71
2022/11/13 12:49:14;;;;;;;8.20;5.60;;;9.20;99.90;;;;;;5079714;28;20492;-71
2022/11/13 12:52:01;;;;;;;7.50;5.35;;;9.30;99.90;;;;;;5079530;28;20071;-71
2022/11/13 12:54:35;;;;;;;17.88;5.15;;;9.30;99.90;;;;;;5061830;28;20017;-71
2022/11/13 12:57:13;;;;;;;6.10;3.78;;;9.30;99.90;;;;;;5079234;28;20035;-71
2022/11/13 12:59:46;;;;;;;7.90;3.97;;;9.40;99.90;;;;;;5079842;28;20048;-71
2022/11/13 13:02:14;;;;;;;6.78;3.85;;;9.50;99.90;;;;;;5079389;28;20077;-71
2022/11/13 13:04:59;;;;;;;8.80;3.88;;;9.50;99.90;;;;;;5079636;28;20056;-71
2022/11/13 13:08:05;;;;;;;6.15;3.83;;;9.60;99.90;;;;;;5079430;28;20023;-71
2022/11/13 13:10:56;;;;;;;6.50;3.95;;;9.60;99.90;;;;;;5079627;28;20027;-71
2022/11/13 13:13:37;;;;;;;5.63;3.28;;;9.70;99.90;;;;;;5061287;28;20027;-71
2022/11/13 13:16:07;;;;;;;6.03;3.55;;;9.80;99.90;;;;;;5079671;28;20017;-71
2022/11/13 13:18:37;;;;;;;8.70;3.50;;;9.90;99.90;;;;;;5079291;28;20370;-71
2022/11/13 13:21:15;;;;;;;7.68;3.88;;;9.90;99.90;;;;;;5079168;28;20036;-71
2022/11/13 13:23:48;;;;;;;6.82;3.70;;;9.90;99.90;;;;;;5078833;28;20032;-71